Terminal Aerodrome Forecast
Issued by NWS

Home | Current Version | Previous Version | Text Only | Print | Product List | Glossary On
Versions: 1 2 3 4 5 6 7 8 9 10 11 12 13 14 15 16 17 18 19 20 21 22 23 24 25 26 27 28 29 30 31 32 33 34 35 36 37
000
FTUS46 KOTX 250318 AAA
TAFCOE
TAF AMD
KCOE 250318Z 2503/2524 20006KT 1/2SM -RA FG BKN003 OVC006
     FM250800 16004KT 1/2SM FG OVC003
     FM251400 17005KT 1/2SM FG OVC003
     FM252100 24006KT 3SM BR OVC007
      AMD LTD TO CLD AND VIS=

USA.gov is the U.S. government's official web portal to all federal, state and local government web resources and services.